createdAt,value
2017-08-25T00:01:02.499Z,99153.74
2017-08-25T00:03:30.030Z,99147.16
2017-08-25T00:05:57.490Z,99150.48
2017-08-25T00:08:24.981Z,99146.14
2017-08-25T00:10:53.288Z,99142.84
2017-08-25T00:13:20.777Z,99133.19
2017-08-25T00:15:48.240Z,99135.97
2017-08-25T00:18:15.721Z,99143.39
2017-08-25T00:20:43.181Z,99139.97
2017-08-25T00:23:10.645Z,99143.73
2017-08-25T00:25:38.133Z,99142.41
2017-08-25T00:28:05.577Z,99137.98
2017-08-25T00:30:33.068Z,99139.23
2017-08-25T00:33:00.527Z,99137.41
2017-08-25T00:35:28.035Z,99137.77
2017-08-25T00:37:55.487Z,99133.60
2017-08-25T00:40:22.981Z,99135.23
2017-08-25T00:42:50.516Z,99138.17
2017-08-25T00:45:18.334Z,99133.43
2017-08-25T00:47:45.799Z,99135.23
2017-08-25T00:50:13.272Z,99120.34
2017-08-25T00:52:40.783Z,99125.55
2017-08-25T00:55:08.265Z,99131.20
2017-08-25T00:57:35.751Z,99131.61
2017-08-25T01:00:03.221Z,99140.45
2017-08-25T01:02:30.722Z,99136.88
2017-08-25T01:04:58.197Z,99135.16
2017-08-25T01:07:25.802Z,99139.91
2017-08-25T01:09:53.298Z,99124.84
2017-08-25T01:12:20.790Z,99142.05
2017-08-25T01:14:48.255Z,99145.34
2017-08-25T01:17:15.733Z,99145.89
2017-08-25T01:19:43.190Z,99146.76
2017-08-25T01:22:10.696Z,99141.47
2017-08-25T01:24:38.183Z,99144.80
2017-08-25T01:27:06.123Z,99140.13
2017-08-25T01:29:33.657Z,99140.31
2017-08-25T01:32:01.102Z,99138.17
2017-08-25T01:34:28.595Z,99132.73
2017-08-25T01:36:56.054Z,99138.79
2017-08-25T01:39:23.529Z,99134.06
2017-08-25T01:41:51.009Z,99134.30
2017-08-25T01:44:18.489Z,99134.58
2017-08-25T01:46:45.951Z,99134.98
2017-08-25T01:49:13.442Z,99135.38
2017-08-25T01:51:40.904Z,99137.99
2017-08-25T01:54:08.377Z,99140.47
2017-08-25T01:56:35.891Z,99143.16
2017-08-25T01:59:03.365Z,99147.91
2017-08-25T02:01:30.873Z,99155.13
2017-08-25T02:03:58.344Z,99155.68
2017-08-25T02:06:25.845Z,99147.33
2017-08-25T02:08:53.293Z,99142.76
2017-08-25T02:11:20.759Z,99127.41
2017-08-25T02:13:48.258Z,99137.38
2017-08-25T02:16:15.772Z,99137.16
2017-08-25T02:18:44.001Z,99133.14
2017-08-25T02:21:11.517Z,99137.02
2017-08-25T02:23:38.965Z,99140.34
2017-08-25T02:26:06.448Z,99142.37
2017-08-25T02:28:33.941Z,99140.33
2017-08-25T02:31:01.430Z,99128.62
2017-08-25T02:33:28.927Z,99114.88
2017-08-25T02:35:56.862Z,99122.92
2017-08-25T02:38:24.360Z,99120.00
2017-08-25T02:40:51.823Z,99119.30
2017-08-25T02:43:19.310Z,99121.41
2017-08-25T02:45:46.787Z,99121.48
2017-08-25T02:48:14.273Z,99112.80
2017-08-25T02:50:41.771Z,99115.80
2017-08-25T02:53:09.254Z,99118.00
2017-08-25T02:55:36.759Z,99121.78
2017-08-25T02:58:04.222Z,99125.39
2017-08-25T03:00:31.723Z,99116.02
2017-08-25T03:02:59.169Z,99121.94
2017-08-25T03:05:26.650Z,99118.17
2017-08-25T03:07:54.126Z,99111.94
2017-08-25T03:10:21.624Z,99106.25
2017-08-25T03:12:49.117Z,99106.11
2017-08-25T03:15:16.602Z,99099.55
2017-08-25T03:17:44.203Z,99105.38
2017-08-25T03:20:11.661Z,99094.19
2017-08-25T03:22:39.117Z,99110.91
2017-08-25T03:25:06.925Z,99101.36
2017-08-25T03:27:34.389Z,99097.21
2017-08-25T03:30:01.857Z,99101.61
2017-08-25T03:32:29.347Z,99102.09
2017-08-25T03:34:56.805Z,99099.91
2017-08-25T03:37:24.295Z,99100.31
2017-08-25T03:39:51.786Z,99094.90
2017-08-25T03:42:19.271Z,99098.91
2017-08-25T03:44:47.541Z,99092.83
2017-08-25T03:47:15.056Z,99092.91
2017-08-25T03:49:42.561Z,99099.78
2017-08-25T03:52:10.048Z,99104.08
2017-08-25T03:54:37.525Z,99103.30
2017-08-25T03:57:05.882Z,99109.90
2017-08-25T03:59:33.393Z,99110.55
2017-08-25T04:02:00.846Z,99119.98
2017-08-25T04:04:28.330Z,99109.81
2017-08-25T04:06:55.835Z,99116.09
2017-08-25T04:09:23.317Z,99107.42
2017-08-25T04:11:50.839Z,99113.24
2017-08-25T04:14:18.439Z,99114.73
2017-08-25T04:16:45.903Z,99127.17
2017-08-25T04:19:13.386Z,99128.91
2017-08-25T04:21:40.869Z,99130.20
2017-08-25T04:24:08.318Z,99125.02
2017-08-25T04:26:36.783Z,99124.81
2017-08-25T04:29:04.313Z,99128.66
2017-08-25T04:31:31.850Z,99130.69
2017-08-25T04:33:59.326Z,99121.24
2017-08-25T04:36:26.816Z,99124.17
2017-08-25T04:38:54.299Z,99119.17
2017-08-25T04:41:21.806Z,99125.36
2017-08-25T04:43:49.269Z,99125.29
2017-08-25T04:46:16.759Z,99116.37
2017-08-25T04:48:44.245Z,99132.44
2017-08-25T04:51:11.738Z,99141.05
2017-08-25T04:53:39.192Z,99093.60
2017-08-25T04:56:06.705Z,99135.56
2017-08-25T04:58:34.199Z,99127.52
2017-08-25T05:01:01.679Z,99128.86
2017-08-25T05:03:29.179Z,99121.44
2017-08-25T05:05:56.727Z,99124.72
2017-08-25T05:08:24.209Z,99119.67
2017-08-25T05:10:52.379Z,99129.59
2017-08-25T05:13:19.861Z,99129.63
2017-08-25T05:15:47.358Z,99136.42
2017-08-25T05:18:15.043Z,99128.65
2017-08-25T05:20:43.490Z,99134.10
2017-08-25T05:23:11.040Z,99137.41
2017-08-25T05:25:38.539Z,99128.48
2017-08-25T05:28:06.049Z,99137.92
2017-08-25T05:30:33.562Z,99132.19
2017-08-25T05:33:01.013Z,99125.70
2017-08-25T05:35:28.506Z,99123.04
2017-08-25T05:37:55.995Z,99121.24
2017-08-25T05:40:23.546Z,99124.27
2017-08-25T05:42:51.056Z,99122.84
2017-08-25T05:45:18.543Z,99130.04
2017-08-25T05:47:46.053Z,99133.42
2017-08-25T05:50:13.612Z,99129.83
2017-08-25T05:52:41.184Z,99130.69
2017-08-25T05:55:08.681Z,99120.08
2017-08-25T05:57:36.361Z,99132.60
2017-08-25T06:00:03.906Z,99135.52
2017-08-25T06:02:31.409Z,99133.41
2017-08-25T06:04:58.976Z,99132.44
2017-08-25T06:07:26.464Z,99130.64
2017-08-25T06:09:54.205Z,99124.97
2017-08-25T06:12:21.859Z,99120.99
2017-08-25T06:14:49.310Z,99130.17
2017-08-25T06:17:16.773Z,99116.01
2017-08-25T06:19:44.388Z,99130.88
2017-08-25T06:22:11.869Z,99135.21
2017-08-25T06:27:13.073Z,99126.11
2017-08-25T06:29:40.613Z,99126.35
2017-08-25T06:32:08.098Z,99141.81
2017-08-25T06:34:35.588Z,99146.23
2017-08-25T06:37:03.048Z,99144.50
2017-08-25T06:39:32.062Z,99153.81
2017-08-25T06:42:01.574Z,99157.63
2017-08-25T06:44:29.079Z,99156.22
2017-08-25T06:46:56.665Z,99159.00
2017-08-25T06:49:24.128Z,99156.31
2017-08-25T06:51:51.713Z,99153.23
2017-08-25T06:54:19.184Z,99149.89
2017-08-25T06:56:46.663Z,99150.84
2017-08-25T06:59:14.185Z,99150.64
2017-08-25T07:01:41.669Z,99150.64
2017-08-25T07:04:09.163Z,99155.77
2017-08-25T07:06:36.642Z,99160.41
2017-08-25T07:09:04.375Z,99159.14
2017-08-25T07:11:31.876Z,99155.18
2017-08-25T07:13:59.330Z,99156.88
2017-08-25T07:16:26.827Z,99161.88
2017-08-25T07:18:54.318Z,99157.79
2017-08-25T07:21:22.385Z,99161.27
2017-08-25T07:23:50.582Z,99157.00
2017-08-25T07:26:18.088Z,99156.66
2017-08-25T07:28:45.578Z,99158.11
2017-08-25T07:31:13.353Z,99158.58
2017-08-25T07:33:40.819Z,99162.28
2017-08-25T07:36:08.349Z,99170.98
2017-08-25T07:38:35.834Z,99165.33
2017-08-25T07:41:03.336Z,99161.23
2017-08-25T07:43:31.140Z,99163.91
2017-08-25T07:45:58.634Z,99163.23
2017-08-25T07:48:26.138Z,99166.62
2017-08-25T07:50:53.689Z,99149.95
2017-08-25T07:53:21.201Z,99157.36
2017-08-25T07:55:48.676Z,99161.16
2017-08-25T07:58:16.158Z,99162.36
2017-08-25T08:00:44.062Z,99162.97
2017-08-25T08:03:11.586Z,99168.95
2017-08-25T08:05:39.067Z,99166.47
2017-08-25T08:08:06.573Z,99165.94
2017-08-25T08:10:34.765Z,99158.44
2017-08-25T08:13:02.349Z,99164.78
2017-08-25T08:15:29.809Z,99161.03
2017-08-25T08:17:57.257Z,99156.27
2017-08-25T08:20:24.766Z,99162.99
2017-08-25T08:22:52.237Z,99163.99
2017-08-25T08:25:19.725Z,99162.70
2017-08-25T08:27:47.204Z,99157.72
2017-08-25T08:30:14.705Z,99155.23
2017-08-25T08:32:42.180Z,99143.47
2017-08-25T08:35:09.670Z,99153.36
2017-08-25T08:37:37.149Z,99152.90
2017-08-25T08:40:05.125Z,99152.73
2017-08-25T08:42:32.620Z,99141.81
2017-08-25T08:45:00.113Z,99135.77
2017-08-25T08:47:27.599Z,99130.47
2017-08-25T08:52:28.832Z,99128.21
2017-08-25T08:54:56.286Z,99041.13
2017-08-25T08:57:23.782Z,99126.73
2017-08-25T08:59:52.150Z,99123.31
2017-08-25T09:02:19.634Z,99118.52
2017-08-25T09:04:47.149Z,99129.08
2017-08-25T09:07:14.695Z,99126.89
2017-08-25T09:09:42.178Z,99132.34
2017-08-25T09:12:09.661Z,99127.19
2017-08-25T09:14:37.471Z,99125.13
2017-08-25T09:17:04.997Z,99127.44
2017-08-25T09:19:33.006Z,99120.80
2017-08-25T09:22:00.481Z,99128.61
2017-08-25T09:24:27.996Z,99120.23
2017-08-25T09:26:55.492Z,99123.17
2017-08-25T09:29:22.981Z,99116.64
2017-08-25T09:31:50.565Z,99116.03
2017-08-25T09:34:18.048Z,99110.94
2017-08-25T09:36:45.515Z,99107.69
2017-08-25T09:39:13.003Z,99112.24
2017-08-25T09:41:40.512Z,99110.08
2017-08-25T09:44:07.965Z,99097.23
2017-08-25T09:46:35.459Z,99106.80
2017-08-25T09:49:03.984Z,99101.63
2017-08-25T09:51:32.381Z,99099.49
2017-08-25T09:53:59.932Z,99099.23
2017-08-25T09:56:27.492Z,99093.44
2017-08-25T09:58:55.931Z,99098.03
2017-08-25T10:01:23.446Z,99092.45
2017-08-25T10:03:50.920Z,99095.12
2017-08-25T10:06:18.426Z,99086.89
2017-08-25T10:08:45.906Z,99088.02
2017-08-25T10:11:13.450Z,99100.28
2017-08-25T10:13:41.004Z,99091.73
2017-08-25T10:16:09.462Z,99093.62
2017-08-25T10:18:36.969Z,99096.50
2017-08-25T10:21:05.515Z,99061.44
2017-08-25T10:23:42.732Z,99091.52
2017-08-25T10:26:10.247Z,99087.80
2017-08-25T10:28:37.728Z,99087.53
2017-08-25T10:31:06.086Z,99083.98
2017-08-25T10:33:43.585Z,99079.47
2017-08-25T10:36:22.958Z,99072.89
2017-08-25T10:39:02.150Z,99063.18
2017-08-25T10:41:41.344Z,99061.39
2017-08-25T10:44:20.814Z,99063.41
2017-08-25T10:46:48.388Z,99048.95
2017-08-25T10:49:18.291Z,99058.03
2017-08-25T10:51:46.552Z,99059.38
2017-08-25T10:54:14.024Z,99055.66
2017-08-25T10:56:42.778Z,99032.95
2017-08-25T10:59:10.659Z,99056.60
2017-08-25T11:01:38.198Z,99048.13
2017-08-25T11:04:05.667Z,99045.25
2017-08-25T11:06:33.156Z,99050.30
2017-08-25T11:09:00.655Z,99048.33
2017-08-25T11:11:28.729Z,99051.13
2017-08-25T11:13:56.217Z,99044.86
2017-08-25T11:16:23.703Z,99045.38
2017-08-25T11:18:51.251Z,99039.05
2017-08-25T11:21:18.748Z,99036.31
2017-08-25T11:23:46.275Z,99034.05
2017-08-25T11:26:13.765Z,99032.77
2017-08-25T11:28:41.277Z,99022.78
2017-08-25T11:31:08.811Z,99031.88
2017-08-25T11:33:36.310Z,99026.70
2017-08-25T11:36:03.781Z,99027.71
2017-08-25T11:38:31.276Z,98985.94
2017-08-25T11:40:58.735Z,99024.06
2017-08-25T11:43:26.303Z,99024.84
2017-08-25T11:45:53.822Z,99020.45
2017-08-25T11:48:21.387Z,99013.86
2017-08-25T11:50:48.904Z,99015.66
2017-08-25T11:53:16.434Z,99019.57
2017-08-25T11:55:43.953Z,99022.89
2017-08-25T11:58:11.481Z,99028.14
2017-08-25T12:00:38.980Z,99022.28
2017-08-25T12:03:06.446Z,99030.09
2017-08-25T12:05:33.970Z,99023.09
2017-08-25T12:08:01.455Z,99028.72
2017-08-25T12:10:28.933Z,99026.58
2017-08-25T12:12:56.417Z,99027.36
2017-08-25T12:15:23.887Z,99026.41
2017-08-25T12:17:51.417Z,99011.22
2017-08-25T12:20:19.183Z,99007.75
2017-08-25T12:22:46.695Z,99013.55
2017-08-25T12:25:14.150Z,99015.50
2017-08-25T12:27:41.655Z,99012.99
2017-08-25T12:30:09.440Z,99016.08
2017-08-25T12:32:36.950Z,99002.41
2017-08-25T12:35:05.013Z,99003.75
2017-08-25T12:37:32.491Z,99007.46
2017-08-25T12:39:59.989Z,98998.98
2017-08-25T12:42:27.486Z,98998.36
2017-08-25T12:44:54.999Z,98995.99
2017-08-25T12:47:27.440Z,98990.70
2017-08-25T12:49:54.938Z,98998.95
2017-08-25T12:52:23.054Z,98996.82
2017-08-25T12:54:50.664Z,98988.45
2017-08-25T12:57:18.196Z,98993.27
2017-08-25T12:59:45.664Z,98982.45
2017-08-25T13:02:13.157Z,98979.94
2017-08-25T13:04:40.790Z,98981.97
2017-08-25T13:07:09.275Z,98980.05
2017-08-25T13:09:36.726Z,98983.47
2017-08-25T13:12:05.030Z,98977.66
2017-08-25T13:14:32.542Z,98967.33
2017-08-25T13:17:00.115Z,98976.99
2017-08-25T13:19:27.614Z,98969.19
2017-08-25T13:21:55.107Z,98976.75
2017-08-25T13:24:22.587Z,98970.09
2017-08-25T13:26:50.188Z,98968.00
2017-08-25T13:29:18.433Z,98966.67
2017-08-25T13:31:45.896Z,98962.30
2017-08-25T13:34:14.186Z,98947.22
2017-08-25T13:36:41.734Z,98957.66
2017-08-25T13:39:09.657Z,98952.04
2017-08-25T13:41:37.145Z,98950.04
2017-08-25T13:44:04.658Z,98944.05
2017-08-25T13:46:32.190Z,98944.95
2017-08-25T13:49:00.424Z,98938.02
2017-08-25T13:51:27.900Z,98942.64
2017-08-25T13:53:55.407Z,98943.64
2017-08-25T13:56:22.880Z,98933.96
2017-08-25T13:58:50.373Z,98938.05
2017-08-25T14:01:17.842Z,98930.34
2017-08-25T14:03:45.376Z,98931.17
2017-08-25T14:06:12.849Z,98928.89
2017-08-25T14:08:40.391Z,98924.83
2017-08-25T14:11:08.703Z,98925.03
2017-08-25T14:13:36.179Z,98918.17
2017-08-25T14:16:03.705Z,98913.63
2017-08-25T14:18:31.890Z,98916.27
2017-08-25T14:20:59.415Z,98908.37
2017-08-25T14:23:26.934Z,98900.76
2017-08-25T14:25:54.437Z,98900.84
2017-08-25T14:28:21.911Z,98900.89
2017-08-25T14:30:49.414Z,98895.59
2017-08-25T14:33:16.954Z,98887.95
2017-08-25T14:35:44.436Z,98889.35
2017-08-25T14:38:14.178Z,98890.78
2017-08-25T14:40:41.639Z,98885.08
2017-08-25T14:43:09.985Z,98884.80
2017-08-25T14:45:37.447Z,98884.05
2017-08-25T14:48:05.802Z,98876.70
2017-08-25T14:50:33.266Z,98867.44
2017-08-25T14:53:00.894Z,98872.11
2017-08-25T14:55:28.880Z,98869.58
2017-08-25T14:57:56.369Z,98875.16
2017-08-25T15:00:23.881Z,98871.22
2017-08-25T15:02:51.353Z,98881.45
2017-08-25T15:05:18.850Z,98877.34
2017-08-25T15:07:46.341Z,98875.58
2017-08-25T15:10:14.094Z,98876.12
2017-08-25T15:12:41.594Z,98876.80
2017-08-25T15:15:09.074Z,98875.53
2017-08-25T15:17:36.607Z,98871.95
2017-08-25T15:20:04.691Z,98865.20
2017-08-25T15:22:32.157Z,98858.95
2017-08-25T15:24:59.659Z,98873.98
2017-08-25T15:27:27.163Z,98878.16
2017-08-25T15:29:54.655Z,98879.85
2017-08-25T15:32:22.161Z,98872.06
2017-08-25T15:34:49.792Z,98875.58
2017-08-25T15:37:17.867Z,98849.70
2017-08-25T15:39:45.427Z,98871.64
2017-08-25T15:42:12.965Z,98863.45
2017-08-25T15:44:40.419Z,98888.68
2017-08-25T15:47:07.915Z,98874.67
2017-08-25T15:49:35.402Z,98896.17
2017-08-25T15:52:02.858Z,98901.94
2017-08-25T15:54:31.283Z,98904.34
2017-08-25T15:56:59.165Z,98922.50
2017-08-25T15:59:26.667Z,98926.28
2017-08-25T16:01:54.146Z,98928.48
2017-08-25T16:04:21.646Z,98944.23
2017-08-25T16:06:49.134Z,98966.31
2017-08-25T16:09:16.709Z,98969.22
2017-08-25T16:11:44.241Z,98952.52
2017-08-25T16:14:11.735Z,98958.66
2017-08-25T16:16:39.241Z,98952.30
2017-08-25T16:19:06.737Z,98950.14
2017-08-25T16:21:34.208Z,98952.84
2017-08-25T16:24:01.688Z,98954.53
2017-08-25T16:26:29.357Z,98957.77
2017-08-25T16:28:56.847Z,98950.46
2017-08-25T16:31:24.382Z,98955.84
2017-08-25T16:33:51.842Z,98965.83
2017-08-25T16:36:19.384Z,98972.56
2017-08-25T16:38:46.914Z,98983.88
2017-08-25T16:41:14.404Z,98981.80
2017-08-25T16:43:41.882Z,98989.37
2017-08-25T16:46:09.401Z,98982.84
2017-08-25T16:48:36.878Z,98972.09
2017-08-25T16:51:04.350Z,98975.88
2017-08-25T16:53:31.854Z,98975.88
2017-08-25T16:55:59.338Z,98977.44
2017-08-25T16:58:27.094Z,98974.42
2017-08-25T17:00:54.544Z,98975.52
2017-08-25T17:03:22.041Z,98970.34
2017-08-25T17:05:49.498Z,98962.59
2017-08-25T17:08:16.966Z,98954.20
2017-08-25T17:10:44.461Z,98958.53
2017-08-25T17:13:11.951Z,98959.19
2017-08-25T17:15:39.439Z,98957.03
2017-08-25T17:18:06.921Z,98950.77
2017-08-25T17:20:34.419Z,98949.77
2017-08-25T17:23:01.873Z,98944.75
2017-08-25T17:25:29.411Z,98948.94
2017-08-25T17:27:56.862Z,98943.42
2017-08-25T17:30:24.351Z,98947.69
2017-08-25T17:32:51.854Z,98947.00
2017-08-25T17:35:19.333Z,98944.86
2017-08-25T17:37:46.818Z,98939.22
2017-08-25T17:40:14.273Z,98943.24
2017-08-25T17:42:41.753Z,98945.30
2017-08-25T17:45:09.222Z,98947.21
2017-08-25T17:47:37.086Z,98919.84
2017-08-25T17:50:04.541Z,98952.45
2017-08-25T17:52:32.005Z,98945.19
2017-08-25T17:55:00.310Z,98948.59
2017-08-25T17:57:27.827Z,98938.39
2017-08-25T17:59:55.315Z,98917.28
2017-08-25T18:02:23.322Z,98944.70
2017-08-25T18:04:50.815Z,98950.70
2017-08-25T18:07:18.282Z,98949.66
2017-08-25T18:09:45.811Z,98950.83
2017-08-25T18:12:13.319Z,98950.38
2017-08-25T18:14:40.794Z,98945.14
2017-08-25T18:17:08.280Z,98948.23
2017-08-25T18:19:35.766Z,98950.52
2017-08-25T18:22:03.270Z,98948.58
2017-08-25T18:24:31.095Z,98948.73
2017-08-25T18:26:58.606Z,98946.12
2017-08-25T18:29:26.063Z,98938.59
2017-08-25T18:31:53.568Z,98934.64
2017-08-25T18:34:21.062Z,98935.22
2017-08-25T18:36:48.553Z,98925.25
2017-08-25T18:39:16.117Z,98920.43
2017-08-25T18:41:43.596Z,98916.13
2017-08-25T18:44:11.273Z,98919.05
2017-08-25T18:46:38.744Z,98917.63
2017-08-25T18:49:06.218Z,98925.94
2017-08-25T18:51:33.703Z,98927.71
2017-08-25T18:54:01.189Z,98936.98
2017-08-25T18:56:28.645Z,98944.33
2017-08-25T18:58:56.133Z,98943.41
2017-08-25T19:01:23.641Z,98942.33
2017-08-25T19:03:51.095Z,98935.52
2017-08-25T19:06:18.589Z,98949.55
2017-08-25T19:08:46.056Z,98954.83
2017-08-25T19:11:14.407Z,98955.45
2017-08-25T19:13:41.924Z,98961.77
2017-08-25T19:16:09.401Z,98957.59
2017-08-25T19:18:36.895Z,98951.45
2017-08-25T19:21:04.386Z,98958.66
2017-08-25T19:23:31.903Z,98962.61
2017-08-25T19:25:59.358Z,98954.36
2017-08-25T19:28:26.988Z,98954.60
2017-08-25T19:30:54.467Z,98942.34
2017-08-25T19:33:21.939Z,98957.98
2017-08-25T19:35:49.458Z,98961.13
2017-08-25T19:38:16.967Z,98964.53
2017-08-25T19:40:44.474Z,98957.47
2017-08-25T19:43:11.963Z,98952.29
2017-08-25T19:45:39.478Z,98947.72
2017-08-25T19:48:06.962Z,98949.77
2017-08-25T19:50:34.444Z,98961.17
2017-08-25T19:53:01.933Z,98958.04
2017-08-25T19:55:29.442Z,98957.09
2017-08-25T19:57:56.946Z,98948.66
2017-08-25T20:00:24.404Z,98949.38
2017-08-25T20:02:51.912Z,98953.41
2017-08-25T20:05:19.381Z,98941.02
2017-08-25T20:07:46.995Z,98939.93
2017-08-25T20:10:14.504Z,98933.44
2017-08-25T20:12:41.991Z,98940.78
2017-08-25T20:15:09.504Z,98940.69
2017-08-25T20:17:36.961Z,98936.92
2017-08-25T20:20:04.446Z,98944.33
2017-08-25T20:22:31.930Z,98941.82
2017-08-25T20:24:59.416Z,98938.45
2017-08-25T20:27:26.895Z,98934.80
2017-08-25T20:29:54.395Z,98945.23
2017-08-25T20:32:22.237Z,98947.41
2017-08-25T20:34:49.812Z,98951.09
2017-08-25T20:37:17.287Z,98953.66
2017-08-25T20:39:44.758Z,98951.78
2017-08-25T20:42:12.254Z,98956.73
2017-08-25T20:44:39.730Z,98923.95
2017-08-25T20:47:07.456Z,98961.31
2017-08-25T20:49:35.718Z,98966.08
2017-08-25T20:52:03.189Z,98969.80
2017-08-25T20:54:30.645Z,98969.03
2017-08-25T20:56:58.120Z,98972.81
2017-08-25T20:59:25.620Z,98965.30
2017-08-25T21:01:53.092Z,98966.96
2017-08-25T21:04:20.593Z,98961.33
2017-08-25T21:06:48.068Z,98968.59
2017-08-25T21:09:16.765Z,98970.55
2017-08-25T21:11:44.234Z,98973.45
2017-08-25T21:14:11.767Z,98974.23
2017-08-25T21:16:39.247Z,98970.78
2017-08-25T21:19:06.751Z,98973.72
2017-08-25T21:21:34.212Z,98974.32
2017-08-25T21:24:01.685Z,98973.80
2017-08-25T21:26:29.181Z,98976.19
2017-08-25T21:28:56.637Z,98968.59
2017-08-25T21:31:24.120Z,98975.14
2017-08-25T21:33:51.588Z,98977.27
2017-08-25T21:36:19.078Z,98980.88
2017-08-25T21:38:46.569Z,98976.69
2017-08-25T21:41:14.084Z,98973.02
2017-08-25T21:43:41.542Z,98971.57
2017-08-25T21:46:09.032Z,98970.11
2017-08-25T21:48:36.526Z,98969.97
2017-08-25T21:51:03.989Z,98964.80
2017-08-25T21:53:31.464Z,98963.19
2017-08-25T21:55:58.938Z,98967.64
2017-08-25T21:58:26.500Z,98971.23
2017-08-25T22:00:53.985Z,98970.28
2017-08-25T22:03:21.505Z,98973.97
2017-08-25T22:05:48.987Z,98973.77
2017-08-25T22:08:16.486Z,98970.50
2017-08-25T22:10:43.941Z,98970.82
2017-08-25T22:13:11.511Z,98970.70
2017-08-25T22:15:39.079Z,98971.87
2017-08-25T22:18:06.547Z,98974.48
2017-08-25T22:20:34.027Z,98981.73
2017-08-25T22:23:01.488Z,98984.12
2017-08-25T22:25:28.992Z,98836.87
2017-08-25T22:27:56.504Z,98978.00
2017-08-25T22:30:24.009Z,98974.95
2017-08-25T22:32:51.489Z,98978.02
2017-08-25T22:35:18.992Z,98974.20
2017-08-25T22:37:46.467Z,98973.27
2017-08-25T22:40:13.965Z,98972.09
2017-08-25T22:42:41.466Z,98973.58
2017-08-25T22:45:08.942Z,98964.89
2017-08-25T22:47:36.433Z,98967.73
2017-08-25T22:50:03.917Z,98966.80
2017-08-25T22:52:31.417Z,98972.07
2017-08-25T22:54:58.898Z,98970.47
2017-08-25T22:57:26.387Z,98964.87
2017-08-25T22:59:53.840Z,98964.23
2017-08-25T23:02:21.339Z,98963.30
2017-08-25T23:04:48.880Z,98962.81
2017-08-25T23:07:16.392Z,98964.37
2017-08-25T23:09:43.921Z,98961.73
2017-08-25T23:12:11.429Z,98966.00
2017-08-25T23:14:38.929Z,98956.23
2017-08-25T23:17:07.122Z,98954.06
2017-08-25T23:19:34.662Z,98955.22
2017-08-25T23:22:02.138Z,98949.12
2017-08-25T23:24:29.625Z,98949.23
2017-08-25T23:26:57.089Z,98954.78
2017-08-25T23:29:24.579Z,98948.08
2017-08-25T23:31:52.025Z,98945.78
2017-08-25T23:34:19.518Z,98938.03
2017-08-25T23:36:46.968Z,98930.93
2017-08-25T23:39:14.460Z,98928.00
2017-08-25T23:41:41.993Z,98929.84
2017-08-25T23:44:09.494Z,98926.20
2017-08-25T23:46:37.004Z,98863.63
2017-08-25T23:49:05.239Z,98917.73
2017-08-25T23:51:32.766Z,98916.50
2017-08-25T23:54:00.245Z,98919.05
2017-08-25T23:56:27.743Z,98919.95
2017-08-25T23:58:55.226Z,98918.05
